This is the latest recevied weather packets stored in our database for station/object DM0MR. If no packets are shown the sender has not sent any weather packets the latest 10 day(s).
| Time | Temp. | Humidity | Pressure | Rain* | Wind** | Luminosity | Snow |
|---|---|---|---|---|---|---|---|
| 1787610187 | 15.56° C | 68% | 1016.5 hPa | 0 mm | - | - | - |
| 1787609286 | 15.56° C | 69% | 1016.6 hPa | 0 mm | - | - | - |
| 1787607487 | 15.56° C | 69% | 1016.9 hPa | 0 mm | - | - | - |
| 1787606585 | 15.56° C | 70% | 1016.9 hPa | 0 mm | - | - | - |
| 1787605686 | 13.89° C | 77% | 1017 hPa | 0 mm | - | - | - |
| 1787604786 | 14.44° C | 76% | 1016.9 hPa | 0 mm | - | - | - |
| 1787603886 | 14.44° C | 75% | 1017 hPa | 0 mm | - | - | - |
| 1787602086 | 13.33° C | 83% | 1017.2 hPa | 0 mm | - | - | - |
| 1787601185 | 12.78° C | 85% | 1017.1 hPa | 0 mm | - | - | - |
| 1787600286 | 12.78° C | 84% | 1017.1 hPa | 0 mm | - | - | - |
| 1787598486 | 13.33° C | 82% | 1017.2 hPa | 0 mm | - | - | - |
| 1787596686 | 14.44° C | 78% | 1017.3 hPa | 0 mm | - | - | - |
| 1787595785 | 15° C | 75% | 1017.3 hPa | 0 mm | - | - | - |
| 1787593986 | 16.67° C | 65% | 1017.5 hPa | 0 mm | - | - | - |
| 1787591286 | 17.78° C | 61% | 1017.4 hPa | 0 mm | - | - | - |
| 1787590386 | 18.33° C | 59% | 1017.5 hPa | 0 mm | - | - | - |
| 1787588586 | 18.33° C | 57% | 1018 hPa | 0 mm | - | - | - |
| 1787587686 | 18.89° C | 55% | 1018.3 hPa | 0 mm | - | - | - |
| 1787586785 | 19.44° C | 53% | 1018.6 hPa | 0 mm | - | - | - |
| 1787584087 | 19.44° C | 53% | 1019.1 hPa | 0 mm | - | - | - |
| 1787583186 | 18.89° C | 56% | 1019 hPa | 0 mm | - | - | - |
| 1787582285 | 19.44° C | 55% | 1019.3 hPa | 0 mm | - | - | - |
| 1787580486 | 20° C | 53% | 1019.6 hPa | 0 mm | - | - | - |
| 1787579586 | 21.11° C | 50% | 1019.7 hPa | 0 mm | - | - | - |
| 1787578686 | 20.56° C | 49% | 1019.8 hPa | 0 mm | - | - | - |
* Rain latest hour (hover to see other rain measurements)
** Current wind speed in m/s (hover to see current wind gust speed)